createdAt,value
2018-09-28T00:00:46.546Z,43.94
2018-09-28T00:01:47.020Z,43.89
2018-09-28T00:02:47.496Z,43.88
2018-09-28T00:03:47.969Z,43.85
2018-09-28T00:04:48.444Z,43.83
2018-09-28T00:05:48.917Z,43.81
2018-09-28T00:06:49.393Z,43.83
2018-09-28T00:07:50.425Z,43.84
2018-09-28T00:08:50.340Z,43.86
2018-09-28T00:09:50.817Z,43.87
2018-09-28T00:10:51.290Z,43.89
2018-09-28T00:11:51.764Z,43.90
2018-09-28T00:12:52.237Z,43.92
2018-09-28T00:13:52.714Z,43.94
2018-09-28T00:14:53.186Z,43.95
2018-09-28T00:15:53.661Z,43.99
2018-09-28T00:16:54.148Z,44.00
2018-09-28T00:17:54.608Z,44.02
2018-09-28T00:18:55.081Z,44.04
2018-09-28T00:19:55.556Z,44.04
2018-09-28T00:20:56.030Z,44.03
2018-09-28T00:21:56.501Z,44.02
2018-09-28T00:22:56.975Z,44.01
2018-09-28T00:23:57.449Z,44.00
2018-09-28T00:24:57.920Z,44.00
2018-09-28T00:25:58.462Z,43.99
2018-09-28T00:26:58.867Z,43.98
2018-09-28T00:27:59.340Z,43.97
2018-09-28T00:28:59.810Z,43.96
2018-09-28T00:30:00.284Z,43.93
2018-09-28T00:31:00.756Z,43.94
2018-09-28T00:32:01.228Z,43.95
2018-09-28T00:33:01.700Z,43.96
2018-09-28T00:34:02.171Z,43.99
2018-09-28T00:35:02.646Z,43.99
2018-09-28T00:36:03.206Z,44.02
2018-09-28T00:37:03.589Z,44.05
2018-09-28T00:38:04.057Z,44.04
2018-09-28T00:39:04.529Z,44.05
2018-09-28T00:40:04.999Z,44.06
2018-09-28T00:41:05.471Z,44.11
2018-09-28T00:42:05.940Z,44.23
2018-09-28T00:43:06.415Z,44.39
2018-09-28T00:44:06.883Z,44.56
2018-09-28T00:45:07.352Z,44.76
2018-09-28T00:46:07.822Z,44.96
2018-09-28T00:47:08.292Z,45.09
2018-09-28T00:48:08.769Z,45.17
2018-09-28T00:49:09.232Z,45.21
2018-09-28T00:50:09.705Z,45.24
2018-09-28T00:51:10.175Z,45.35
2018-09-28T00:52:10.645Z,45.41
2018-09-28T00:53:11.115Z,45.46
2018-09-28T00:54:11.587Z,45.51
2018-09-28T00:55:12.056Z,45.53
2018-09-28T00:56:12.538Z,45.50
2018-09-28T00:57:12.996Z,45.54
2018-09-28T00:58:13.470Z,45.52
2018-09-28T00:59:13.939Z,45.49
2018-09-28T01:00:14.412Z,45.49
2018-09-28T01:01:14.880Z,45.49
2018-09-28T01:02:15.355Z,45.47
2018-09-28T01:03:15.823Z,45.43
2018-09-28T01:04:16.296Z,45.45
2018-09-28T01:05:16.767Z,45.45
2018-09-28T01:06:17.239Z,45.45
2018-09-28T01:07:17.711Z,45.48
2018-09-28T01:08:18.184Z,45.48
2018-09-28T01:09:18.659Z,45.46
2018-09-28T01:10:19.127Z,45.47
2018-09-28T01:11:19.601Z,45.52
2018-09-28T01:12:20.072Z,45.50
2018-09-28T01:13:20.545Z,45.49
2018-09-28T01:14:21.020Z,45.46
2018-09-28T01:15:21.493Z,45.40
2018-09-28T01:16:21.967Z,45.37
2018-09-28T01:17:22.440Z,45.34
2018-09-28T01:18:22.915Z,45.30
2018-09-28T01:19:23.388Z,45.31
2018-09-28T01:20:23.867Z,45.22
2018-09-28T01:21:24.341Z,45.20
2018-09-28T01:22:24.811Z,45.18
2018-09-28T01:23:25.340Z,45.20
2018-09-28T01:24:25.760Z,45.20
2018-09-28T01:25:26.240Z,45.20
2018-09-28T01:26:26.709Z,45.19
2018-09-28T01:27:27.181Z,45.21
2018-09-28T01:28:27.658Z,45.21
2018-09-28T01:29:28.131Z,45.24
2018-09-28T01:30:28.603Z,45.27
2018-09-28T01:31:29.080Z,45.29
2018-09-28T01:32:29.553Z,45.30
2018-09-28T01:33:30.027Z,45.34
2018-09-28T01:34:30.499Z,45.36
2018-09-28T01:35:30.975Z,45.39
2018-09-28T01:36:31.449Z,45.41
2018-09-28T01:37:31.923Z,45.46
2018-09-28T01:38:32.393Z,45.48
2018-09-28T01:39:32.868Z,45.50
2018-09-28T01:40:33.341Z,45.48
2018-09-28T01:41:33.814Z,45.48
2018-09-28T01:42:34.286Z,45.49
2018-09-28T01:43:34.758Z,45.51
2018-09-28T01:44:35.237Z,45.51
2018-09-28T01:45:35.702Z,45.51
2018-09-28T01:46:36.173Z,45.49
2018-09-28T01:47:36.646Z,45.48
2018-09-28T01:48:37.117Z,45.45
2018-09-28T01:49:37.590Z,45.43
2018-09-28T01:50:38.084Z,45.44
2018-09-28T01:51:38.534Z,45.49
2018-09-28T01:52:39.004Z,45.55
2018-09-28T01:53:39.473Z,45.62
2018-09-28T01:54:39.947Z,45.71
2018-09-28T01:55:40.418Z,45.79
2018-09-28T01:56:40.887Z,45.82
2018-09-28T01:57:41.357Z,45.88
2018-09-28T01:58:41.829Z,45.88
2018-09-28T01:59:42.301Z,45.88
2018-09-28T02:00:42.769Z,45.92
2018-09-28T02:01:43.239Z,45.91
2018-09-28T02:02:43.711Z,45.87
2018-09-28T02:03:44.181Z,45.85
2018-09-28T02:04:44.655Z,45.82
2018-09-28T02:05:45.120Z,45.75
2018-09-28T02:06:45.592Z,45.68
2018-09-28T02:07:46.066Z,45.64
2018-09-28T02:08:46.534Z,45.61
2018-09-28T02:09:47.008Z,45.58
2018-09-28T02:10:47.476Z,45.52
2018-09-28T02:11:47.948Z,45.47
2018-09-28T02:12:48.418Z,45.46
2018-09-28T02:13:48.889Z,45.46
2018-09-28T02:14:49.361Z,45.43
2018-09-28T02:15:49.855Z,45.39
2018-09-28T02:16:50.305Z,45.41
2018-09-28T02:17:50.782Z,45.43
2018-09-28T02:18:51.248Z,45.44
2018-09-28T02:19:51.722Z,45.45
2018-09-28T02:20:52.195Z,45.43
2018-09-28T02:21:52.667Z,45.44
2018-09-28T02:22:53.139Z,45.46
2018-09-28T02:23:53.613Z,45.47
2018-09-28T02:24:54.088Z,45.46
2018-09-28T02:25:54.558Z,45.48
2018-09-28T02:26:55.033Z,45.50
2018-09-28T02:27:55.511Z,45.45
2018-09-28T02:28:55.978Z,45.41
2018-09-28T02:29:56.453Z,45.39
2018-09-28T02:30:56.928Z,45.33
2018-09-28T02:31:57.400Z,45.33
2018-09-28T02:32:57.876Z,45.28
2018-09-28T02:33:58.354Z,45.26
2018-09-28T02:34:58.830Z,45.26
2018-09-28T02:35:59.300Z,45.30
2018-09-28T02:36:59.777Z,45.32
2018-09-28T02:38:00.246Z,45.34
2018-09-28T02:39:00.721Z,45.35
2018-09-28T02:40:01.198Z,45.39
2018-09-28T02:41:01.671Z,45.45
2018-09-28T02:42:02.142Z,45.48
2018-09-28T02:43:02.616Z,45.52
2018-09-28T02:44:03.088Z,45.54
2018-09-28T02:45:03.564Z,45.58
2018-09-28T02:46:04.041Z,45.61
2018-09-28T02:47:04.509Z,45.70
2018-09-28T02:48:04.995Z,45.75
2018-09-28T02:49:05.457Z,45.78
2018-09-28T02:50:05.928Z,45.84
2018-09-28T02:51:06.405Z,45.87
2018-09-28T02:52:06.886Z,45.92
2018-09-28T02:53:07.372Z,45.94
2018-09-28T02:54:07.818Z,45.94
2018-09-28T02:55:08.290Z,45.94
2018-09-28T02:56:08.764Z,45.95
2018-09-28T02:57:09.233Z,45.94
2018-09-28T02:58:09.705Z,45.93
2018-09-28T02:59:10.178Z,45.99
2018-09-28T03:00:10.652Z,46.03
2018-09-28T03:01:11.123Z,46.10
2018-09-28T03:02:11.590Z,46.20
2018-09-28T03:03:12.065Z,46.28
2018-09-28T03:04:12.532Z,46.34
2018-09-28T03:05:13.004Z,46.35
2018-09-28T03:06:13.498Z,46.35
2018-09-28T03:07:13.947Z,46.32
2018-09-28T03:08:14.414Z,46.34
2018-09-28T03:09:14.884Z,46.31
2018-09-28T03:10:15.354Z,46.28
2018-09-28T03:11:15.825Z,46.24
2018-09-28T03:12:16.296Z,46.20
2018-09-28T03:13:16.767Z,46.14
2018-09-28T03:14:17.489Z,46.13
2018-09-28T03:15:17.710Z,46.06
2018-09-28T03:16:18.176Z,46.02
2018-09-28T03:17:18.649Z,45.97
2018-09-28T03:18:19.118Z,45.91
2018-09-28T03:19:19.640Z,45.85
2018-09-28T03:20:20.065Z,45.78
2018-09-28T03:21:20.533Z,45.72
2018-09-28T03:22:21.004Z,45.65
2018-09-28T03:23:21.474Z,45.57
2018-09-28T03:24:21.947Z,45.48
2018-09-28T03:25:22.419Z,45.44
2018-09-28T03:26:22.888Z,45.36
2018-09-28T03:27:23.360Z,45.29
2018-09-28T03:28:23.833Z,45.22
2018-09-28T03:29:24.306Z,45.16
2018-09-28T03:30:24.780Z,45.07
2018-09-28T03:31:25.250Z,45.02
2018-09-28T03:32:25.724Z,44.98
2018-09-28T03:33:26.196Z,44.90
2018-09-28T03:34:26.666Z,44.89
2018-09-28T03:35:27.141Z,44.83
2018-09-28T03:36:27.615Z,44.81
2018-09-28T03:37:28.088Z,44.72
2018-09-28T03:38:28.562Z,44.64
2018-09-28T03:39:29.036Z,44.56
2018-09-28T03:40:29.552Z,44.46
2018-09-28T03:41:29.987Z,44.40
2018-09-28T03:42:30.457Z,44.32
2018-09-28T03:43:30.930Z,44.26
2018-09-28T03:44:31.404Z,44.21
2018-09-28T03:45:31.880Z,44.20
2018-09-28T03:46:32.353Z,44.22
2018-09-28T03:47:32.826Z,44.24
2018-09-28T03:48:33.304Z,44.26
2018-09-28T03:49:33.776Z,44.31
2018-09-28T03:50:34.249Z,44.38
2018-09-28T03:51:34.722Z,44.43
2018-09-28T03:52:35.198Z,44.52
2018-09-28T03:53:35.682Z,44.57
2018-09-28T03:54:36.143Z,44.63
2018-09-28T03:55:36.617Z,44.67
2018-09-28T03:56:37.092Z,44.70
2018-09-28T03:57:37.564Z,44.75
2018-09-28T03:58:38.041Z,44.79
2018-09-28T03:59:38.511Z,44.82
2018-09-28T04:00:38.983Z,44.83
2018-09-28T04:01:39.455Z,44.86
2018-09-28T04:02:39.928Z,44.89
2018-09-28T04:03:40.406Z,44.89
2018-09-28T04:04:40.871Z,44.86
2018-09-28T04:05:41.342Z,44.85
2018-09-28T04:06:41.815Z,44.83
2018-09-28T04:07:42.287Z,44.80
2018-09-28T04:08:42.758Z,44.76
2018-09-28T04:09:43.229Z,44.77
2018-09-28T04:10:43.698Z,44.80
2018-09-28T04:11:44.172Z,44.84
2018-09-28T04:12:44.640Z,44.90
2018-09-28T04:13:45.112Z,44.96
2018-09-28T04:14:45.683Z,45.00
2018-09-28T04:15:46.053Z,45.03
2018-09-28T04:16:46.525Z,45.06
2018-09-28T04:17:46.995Z,45.07
2018-09-28T04:18:47.464Z,45.05
2018-09-28T04:19:47.932Z,45.04
2018-09-28T04:20:48.402Z,45.01
2018-09-28T04:21:48.890Z,44.97
2018-09-28T04:22:49.344Z,44.87
2018-09-28T04:23:49.812Z,44.86
2018-09-28T04:24:50.283Z,44.79
2018-09-28T04:25:50.752Z,44.70
2018-09-28T04:26:51.224Z,44.62
2018-09-28T04:27:51.694Z,44.56
2018-09-28T04:28:52.167Z,44.49
2018-09-28T04:29:52.636Z,44.42
2018-09-28T04:30:53.105Z,44.40
2018-09-28T04:31:53.576Z,44.38
2018-09-28T04:32:54.046Z,44.37
2018-09-28T04:33:54.520Z,44.36
2018-09-28T04:34:54.988Z,44.34
2018-09-28T04:35:55.462Z,44.33
2018-09-28T04:36:55.931Z,44.34
2018-09-28T04:37:56.403Z,44.35
2018-09-28T04:38:56.875Z,44.34
2018-09-28T04:39:57.348Z,44.32
2018-09-28T04:40:57.818Z,44.27
2018-09-28T04:41:58.289Z,44.27
2018-09-28T04:42:58.765Z,44.26
2018-09-28T04:43:59.236Z,44.23
2018-09-28T04:44:59.715Z,44.21
2018-09-28T04:46:00.181Z,44.17
2018-09-28T04:47:00.653Z,44.15
2018-09-28T04:49:01.601Z,44.00
2018-09-28T04:50:02.074Z,43.93
2018-09-28T04:51:02.548Z,43.88
2018-09-28T04:52:03.019Z,43.86
2018-09-28T04:53:03.494Z,43.81
2018-09-28T04:54:03.967Z,43.78
2018-09-28T04:55:04.443Z,43.77
2018-09-28T04:56:04.916Z,43.81
2018-09-28T04:57:05.389Z,43.82
2018-09-28T04:58:05.867Z,43.83
2018-09-28T04:59:06.336Z,43.87
2018-09-28T05:00:06.813Z,43.91
2018-09-28T05:01:07.285Z,43.95
2018-09-28T05:02:07.759Z,44.01
2018-09-28T05:03:08.229Z,44.06
2018-09-28T05:04:08.703Z,44.11
2018-09-28T05:05:09.176Z,44.15
2018-09-28T05:06:09.651Z,44.18
2018-09-28T05:07:10.124Z,44.22
2018-09-28T05:08:10.595Z,44.25
2018-09-28T05:09:11.068Z,44.28
2018-09-28T05:10:11.540Z,44.31
2018-09-28T05:11:12.013Z,44.33
2018-09-28T05:12:12.484Z,44.34
2018-09-28T05:13:12.968Z,44.35
2018-09-28T05:14:13.428Z,44.37
2018-09-28T05:15:13.900Z,44.37
2018-09-28T05:16:14.371Z,44.35
2018-09-28T05:17:14.842Z,44.34
2018-09-28T05:18:15.313Z,44.32
2018-09-28T05:19:15.783Z,44.38
2018-09-28T05:20:16.254Z,44.43
2018-09-28T05:21:16.727Z,44.51
2018-09-28T05:22:17.197Z,44.58
2018-09-28T05:23:17.664Z,44.63
2018-09-28T05:24:18.137Z,44.66
2018-09-28T05:25:18.635Z,44.68
2018-09-28T05:26:19.080Z,44.68
2018-09-28T05:27:19.544Z,44.67
2018-09-28T05:28:20.017Z,44.65
2018-09-28T05:29:20.495Z,44.63
2018-09-28T05:30:20.959Z,44.59
2018-09-28T05:31:21.506Z,44.51
2018-09-28T05:32:22.039Z,44.43
2018-09-28T05:33:22.365Z,44.38
2018-09-28T05:34:22.835Z,44.28
2018-09-28T05:35:23.305Z,44.25
2018-09-28T05:36:23.816Z,44.18
2018-09-28T05:37:24.304Z,44.12
2018-09-28T05:38:24.718Z,44.08
2018-09-28T05:39:25.209Z,44.02
2018-09-28T05:40:25.655Z,43.98
2018-09-28T05:41:26.129Z,43.92
2018-09-28T05:42:26.599Z,43.89
2018-09-28T05:43:27.069Z,43.86
2018-09-28T05:44:27.540Z,43.85
2018-09-28T05:45:28.012Z,43.83
2018-09-28T05:46:28.528Z,43.80
2018-09-28T05:47:28.952Z,43.79
2018-09-28T05:48:29.425Z,43.76
2018-09-28T05:49:29.898Z,43.73
2018-09-28T05:50:30.369Z,43.68
2018-09-28T05:51:30.920Z,43.65
2018-09-28T05:52:31.315Z,43.61
2018-09-28T05:53:31.787Z,43.58
2018-09-28T05:54:32.262Z,43.55
2018-09-28T05:55:32.730Z,43.54
2018-09-28T05:56:33.203Z,43.51
2018-09-28T05:57:33.678Z,43.47
2018-09-28T05:58:34.210Z,43.41
2018-09-28T05:59:34.628Z,43.35
2018-09-28T06:00:35.100Z,43.23
2018-09-28T06:01:35.572Z,43.16
2018-09-28T06:02:36.046Z,43.09
2018-09-28T06:03:36.521Z,43.02
2018-09-28T06:04:36.994Z,42.98
2018-09-28T06:05:37.583Z,42.95
2018-09-28T06:06:37.948Z,42.97
2018-09-28T06:07:38.417Z,42.96
2018-09-28T06:08:38.891Z,42.96
2018-09-28T06:09:39.362Z,42.95
2018-09-28T06:10:39.846Z,42.93
2018-09-28T06:11:40.310Z,42.98
2018-09-28T06:12:40.784Z,43.01
2018-09-28T06:13:41.257Z,43.04
2018-09-28T06:14:41.750Z,43.04
2018-09-28T06:15:42.208Z,43.06
2018-09-28T06:16:42.677Z,43.10
2018-09-28T06:18:43.673Z,43.10
2018-09-28T06:19:44.100Z,43.10
2018-09-28T06:20:44.569Z,43.13
2018-09-28T06:21:45.042Z,43.17
2018-09-28T06:22:45.515Z,43.18
2018-09-28T06:23:45.990Z,43.20
2018-09-28T06:24:46.459Z,43.20
2018-09-28T06:25:46.970Z,43.19
2018-09-28T06:26:47.405Z,43.20
2018-09-28T06:27:47.874Z,43.18
2018-09-28T06:28:48.349Z,43.16
2018-09-28T06:29:48.833Z,43.14
2018-09-28T06:30:49.293Z,43.11
2018-09-28T06:31:49.761Z,43.08
2018-09-28T06:32:50.232Z,43.11
2018-09-28T06:33:50.703Z,43.15
2018-09-28T06:34:51.175Z,43.21
2018-09-28T06:35:51.694Z,43.24
2018-09-28T06:36:52.117Z,43.27
2018-09-28T06:37:52.586Z,43.28
2018-09-28T06:38:53.057Z,43.30
2018-09-28T06:39:53.526Z,43.32
2018-09-28T06:40:53.998Z,43.31
2018-09-28T06:41:54.536Z,43.27
2018-09-28T06:42:54.937Z,43.23
2018-09-28T06:43:55.410Z,43.18
2018-09-28T06:44:55.880Z,43.12
2018-09-28T06:45:56.350Z,43.04
2018-09-28T06:46:56.822Z,42.97
2018-09-28T06:47:57.339Z,42.89
2018-09-28T06:48:57.760Z,42.80
2018-09-28T06:49:58.233Z,42.74
2018-09-28T06:50:58.755Z,42.66
2018-09-28T06:51:59.175Z,42.58
2018-09-28T06:52:59.644Z,42.50
2018-09-28T06:55:00.589Z,42.36
2018-09-28T06:56:01.059Z,42.31
2018-09-28T06:57:01.532Z,42.29
2018-09-28T06:58:02.023Z,42.27
2018-09-28T06:59:02.473Z,42.27
2018-09-28T07:00:02.998Z,42.26
2018-09-28T07:01:03.418Z,42.24
2018-09-28T07:02:03.892Z,42.24
2018-09-28T07:03:04.365Z,42.24
2018-09-28T07:04:04.898Z,42.27
2018-09-28T07:05:05.309Z,42.27
2018-09-28T07:06:05.789Z,42.25
2018-09-28T07:07:06.259Z,42.18
2018-09-28T07:08:06.731Z,42.10
2018-09-28T07:09:07.204Z,41.98
2018-09-28T07:10:07.680Z,41.89
2018-09-28T07:11:08.157Z,41.81
2018-09-28T07:12:08.658Z,41.72
2018-09-28T07:13:09.102Z,41.66
2018-09-28T07:14:09.576Z,41.62
2018-09-28T07:15:10.051Z,41.58
2018-09-28T07:16:10.540Z,41.52
2018-09-28T07:17:11.001Z,41.49
2018-09-28T07:18:11.489Z,41.51
2018-09-28T07:19:11.955Z,41.51
2018-09-28T07:20:12.424Z,41.53
2018-09-28T07:21:12.897Z,41.57
2018-09-28T07:22:13.372Z,41.58
2018-09-28T07:23:13.847Z,41.62
2018-09-28T07:24:14.342Z,41.64
2018-09-28T07:25:14.886Z,41.65
2018-09-28T07:26:15.321Z,41.66
2018-09-28T07:27:15.742Z,41.66
2018-09-28T07:28:16.216Z,41.67
2018-09-28T07:29:16.691Z,41.68
2018-09-28T07:30:17.223Z,41.71
2018-09-28T07:31:17.637Z,41.70
2018-09-28T07:32:18.109Z,41.68
2018-09-28T07:33:18.583Z,41.66
2018-09-28T07:34:19.056Z,41.62
2018-09-28T07:35:19.531Z,41.59
2018-09-28T07:36:20.106Z,41.56
2018-09-28T07:37:20.603Z,41.56
2018-09-28T07:38:20.950Z,41.54
2018-09-28T07:39:21.420Z,41.51
2018-09-28T07:40:21.891Z,41.48
2018-09-28T07:41:22.414Z,41.46
2018-09-28T07:42:22.902Z,41.44
2018-09-28T07:43:23.309Z,41.39
2018-09-28T07:44:23.778Z,41.34
2018-09-28T07:45:24.250Z,41.32
2018-09-28T07:46:24.824Z,41.30
2018-09-28T07:47:25.200Z,41.26
2018-09-28T07:48:25.666Z,41.21
2018-09-28T07:49:26.141Z,41.23
2018-09-28T07:50:26.608Z,41.28
2018-09-28T07:51:27.078Z,41.34
2018-09-28T07:52:27.550Z,41.38
2018-09-28T07:53:28.024Z,41.43
2018-09-28T07:54:28.492Z,41.45
2018-09-28T07:55:28.962Z,41.48
2018-09-28T07:56:29.431Z,41.50
2018-09-28T07:57:29.904Z,41.48
2018-09-28T07:58:30.374Z,41.47
2018-09-28T07:59:30.846Z,41.46
2018-09-28T08:00:31.317Z,41.45
2018-09-28T08:01:31.786Z,41.44
2018-09-28T08:02:32.259Z,41.40
2018-09-28T08:03:32.728Z,41.35
2018-09-28T08:04:33.200Z,41.29
2018-09-28T08:05:33.673Z,41.20
2018-09-28T08:06:34.144Z,41.14
2018-09-28T08:07:34.616Z,41.07
2018-09-28T08:08:35.087Z,41.01
2018-09-28T08:09:35.558Z,40.95
2018-09-28T08:10:36.039Z,40.90
2018-09-28T08:11:36.503Z,40.88
2018-09-28T08:12:36.974Z,40.84
2018-09-28T08:13:37.447Z,40.82
2018-09-28T08:14:37.919Z,40.82
2018-09-28T08:15:38.392Z,40.81
2018-09-28T08:16:38.865Z,40.80
2018-09-28T08:17:39.340Z,40.75
2018-09-28T08:18:39.813Z,40.71
2018-09-28T08:19:40.287Z,40.61
2018-09-28T08:20:40.762Z,40.53
2018-09-28T08:21:41.234Z,40.44
2018-09-28T08:22:41.710Z,40.38
2018-09-28T08:23:42.183Z,40.32
2018-09-28T08:24:42.717Z,40.27
2018-09-28T08:25:43.132Z,40.27
2018-09-28T08:26:43.608Z,40.27
2018-09-28T08:27:44.083Z,40.25
2018-09-28T08:28:44.557Z,40.24
2018-09-28T08:29:45.036Z,40.21
2018-09-28T08:30:45.507Z,40.20
2018-09-28T08:31:45.983Z,40.19
2018-09-28T08:32:46.457Z,40.18
2018-09-28T08:33:46.931Z,40.18
2018-09-28T08:34:47.408Z,40.18
2018-09-28T08:35:47.881Z,40.18
2018-09-28T08:36:48.417Z,40.17
2018-09-28T08:37:48.832Z,40.18
2018-09-28T08:38:49.305Z,40.17
2018-09-28T08:39:49.781Z,40.17
2018-09-28T08:40:50.253Z,40.17
2018-09-28T08:41:50.731Z,40.17
2018-09-28T08:42:51.204Z,40.17
2018-09-28T08:43:51.677Z,40.16
2018-09-28T08:44:52.151Z,40.12
2018-09-28T08:45:52.626Z,40.09
2018-09-28T08:46:53.099Z,40.05
2018-09-28T08:47:53.572Z,40.00
2018-09-28T08:48:54.047Z,39.96
2018-09-28T08:49:54.519Z,39.87
2018-09-28T08:50:54.994Z,39.85
2018-09-28T08:51:55.467Z,39.81
2018-09-28T08:52:55.941Z,39.77
2018-09-28T08:53:56.412Z,39.73
2018-09-28T08:54:56.887Z,39.70
2018-09-28T08:55:57.361Z,39.67
2018-09-28T08:56:57.830Z,39.64
2018-09-28T08:57:58.303Z,39.62
2018-09-28T08:58:58.774Z,39.60
2018-09-28T08:59:59.250Z,39.58
2018-09-28T09:00:59.720Z,39.56
2018-09-28T09:02:00.218Z,39.52
2018-09-28T09:03:00.664Z,39.49
2018-09-28T09:04:01.137Z,39.45
2018-09-28T09:05:01.608Z,39.41
2018-09-28T09:06:02.082Z,39.37
2018-09-28T09:07:02.552Z,39.29
2018-09-28T09:08:03.024Z,39.22
2018-09-28T09:09:03.497Z,39.18
2018-09-28T09:10:03.969Z,39.14
2018-09-28T09:11:04.445Z,39.09
2018-09-28T09:12:04.911Z,39.04
2018-09-28T09:13:05.386Z,38.98
2018-09-28T09:14:05.853Z,38.94
2018-09-28T09:15:06.325Z,38.89
2018-09-28T09:16:06.796Z,38.86
2018-09-28T09:17:07.268Z,38.82
2018-09-28T09:18:07.823Z,38.77
2018-09-28T09:19:08.210Z,38.81
2018-09-28T09:20:08.685Z,38.87
2018-09-28T09:21:09.151Z,38.91
2018-09-28T09:22:09.622Z,38.95
2018-09-28T09:23:10.094Z,39.01
2018-09-28T09:24:10.566Z,39.06
2018-09-28T09:25:11.035Z,39.13
2018-09-28T09:26:11.507Z,39.10
2018-09-28T09:27:11.977Z,39.15
2018-09-28T09:28:12.449Z,39.14
2018-09-28T09:29:12.918Z,39.13
2018-09-28T09:30:13.422Z,39.11
2018-09-28T09:31:13.860Z,39.07
2018-09-28T09:32:14.333Z,39.04
2018-09-28T09:33:14.805Z,39.00
2018-09-28T09:34:15.276Z,38.93
2018-09-28T09:35:15.749Z,38.89
2018-09-28T09:36:16.219Z,38.83
2018-09-28T09:37:16.691Z,38.79
2018-09-28T09:38:17.164Z,38.71
2018-09-28T09:39:17.638Z,38.68
2018-09-28T09:40:18.112Z,38.65
2018-09-28T09:41:18.584Z,38.58
2018-09-28T09:42:19.060Z,38.51
2018-09-28T09:43:19.531Z,38.45
2018-09-28T09:44:20.004Z,38.37
2018-09-28T09:45:20.478Z,38.29
2018-09-28T09:46:20.957Z,38.23
2018-09-28T09:47:21.435Z,38.18
2018-09-28T09:48:21.951Z,38.18
2018-09-28T09:49:22.377Z,38.18
2018-09-28T09:50:22.852Z,38.15
2018-09-28T09:51:23.328Z,38.14
2018-09-28T09:52:23.804Z,38.12
2018-09-28T09:53:24.277Z,38.08
2018-09-28T09:54:24.752Z,38.07
2018-09-28T09:55:25.227Z,38.06
2018-09-28T09:56:25.703Z,38.07
2018-09-28T09:57:26.178Z,38.06
2018-09-28T09:58:26.654Z,38.07
2018-09-28T09:59:27.129Z,38.08
2018-09-28T10:00:27.604Z,38.07
2018-09-28T10:01:28.080Z,38.06
2018-09-28T10:02:28.603Z,38.06
2018-09-28T10:03:29.029Z,38.08
2018-09-28T10:04:29.504Z,38.11
2018-09-28T10:05:29.983Z,38.08
2018-09-28T10:06:30.456Z,38.08
2018-09-28T10:07:30.928Z,38.11
2018-09-28T10:08:31.403Z,38.10
2018-09-28T10:09:31.884Z,38.11
2018-09-28T10:10:32.353Z,38.11
2018-09-28T10:11:32.826Z,38.13
2018-09-28T10:12:33.424Z,38.14
2018-09-28T10:13:33.779Z,38.14
2018-09-28T10:14:34.249Z,38.12
2018-09-28T10:15:34.724Z,38.11
2018-09-28T10:16:35.201Z,38.09
2018-09-28T10:17:35.673Z,38.08
2018-09-28T10:18:36.146Z,38.07
2018-09-28T10:19:36.638Z,38.06
2018-09-28T10:20:37.094Z,38.06
2018-09-28T10:21:37.570Z,38.05
2018-09-28T10:22:38.042Z,38.05
2018-09-28T10:23:38.516Z,38.04
2018-09-28T10:24:38.997Z,38.03
2018-09-28T10:25:39.472Z,38.01
2018-09-28T10:26:39.988Z,38.00
2018-09-28T10:27:40.442Z,37.96
2018-09-28T10:28:40.962Z,37.95
2018-09-28T10:29:41.355Z,37.91
2018-09-28T10:30:41.828Z,37.89
2018-09-28T10:31:42.303Z,37.84
2018-09-28T10:32:42.775Z,37.80
2018-09-28T10:33:43.339Z,37.77
2018-09-28T10:34:43.802Z,37.75
2018-09-28T10:35:44.194Z,37.71
2018-09-28T10:36:44.667Z,37.68
2018-09-28T10:37:45.142Z,37.65
2018-09-28T10:38:45.613Z,37.63
2018-09-28T10:39:46.118Z,37.59
2018-09-28T10:40:46.813Z,37.56
2018-09-28T10:41:47.029Z,37.52
2018-09-28T10:42:47.501Z,37.50
2018-09-28T10:43:47.974Z,37.48
2018-09-28T10:44:48.447Z,37.45
2018-09-28T10:45:48.940Z,37.42
2018-09-28T10:46:49.396Z,37.39
2018-09-28T10:47:49.863Z,37.37
2018-09-28T10:48:50.336Z,37.34
2018-09-28T10:49:50.808Z,37.30
2018-09-28T10:50:51.284Z,37.27
2018-09-28T10:51:51.869Z,37.23
2018-09-28T10:52:52.247Z,37.21
2018-09-28T10:53:52.697Z,37.17
2018-09-28T10:54:53.168Z,37.14
2018-09-28T10:55:53.641Z,37.11
2018-09-28T10:56:54.115Z,37.08
2018-09-28T10:57:54.586Z,37.04
2018-09-28T10:58:55.130Z,37.02
2018-09-28T10:59:55.529Z,36.98
2018-09-28T11:00:56.001Z,36.95
2018-09-28T11:01:56.472Z,36.93
2018-09-28T11:02:56.942Z,36.90
2018-09-28T11:03:57.417Z,36.88
2018-09-28T11:04:57.888Z,36.86
2018-09-28T11:05:58.360Z,36.83
2018-09-28T11:06:58.836Z,36.79
2018-09-28T11:07:59.302Z,36.77
2018-09-28T11:08:59.840Z,36.75
2018-09-28T11:10:00.247Z,36.73
2018-09-28T11:11:00.718Z,36.70
2018-09-28T11:12:01.189Z,36.69
2018-09-28T11:13:01.662Z,36.67
2018-09-28T11:14:02.136Z,36.65
2018-09-28T11:15:02.605Z,36.62
2018-09-28T11:16:03.077Z,36.61
2018-09-28T11:17:03.547Z,36.59
2018-09-28T11:18:04.018Z,36.57
2018-09-28T11:19:04.599Z,36.54
2018-09-28T11:20:04.965Z,36.54
2018-09-28T11:21:05.436Z,36.51
2018-09-28T11:22:05.905Z,36.50
2018-09-28T11:23:06.376Z,36.48
2018-09-28T11:24:06.847Z,36.47
2018-09-28T11:25:07.320Z,36.45
2018-09-28T11:26:07.793Z,36.44
2018-09-28T11:27:08.268Z,36.41
2018-09-28T11:28:08.738Z,36.40
2018-09-28T11:29:09.206Z,36.38
2018-09-28T11:30:09.677Z,36.37
2018-09-28T11:31:10.151Z,36.35
2018-09-28T11:32:10.619Z,36.34
2018-09-28T11:33:11.104Z,36.32
2018-09-28T11:34:11.564Z,36.31
2018-09-28T11:35:12.034Z,36.30
2018-09-28T11:36:12.505Z,36.29
2018-09-28T11:37:12.977Z,36.28
2018-09-28T11:38:13.448Z,36.27
2018-09-28T11:39:13.957Z,36.26
2018-09-28T11:40:14.391Z,36.25
2018-09-28T11:41:14.862Z,36.23
2018-09-28T11:42:15.333Z,36.22
2018-09-28T11:43:15.891Z,36.21
2018-09-28T11:44:16.279Z,36.18
2018-09-28T11:45:16.794Z,36.18
2018-09-28T11:46:17.219Z,36.17
2018-09-28T11:47:17.688Z,36.15
2018-09-28T11:48:18.161Z,36.14
2018-09-28T11:49:18.634Z,36.13
2018-09-28T11:50:19.104Z,36.12
2018-09-28T11:51:19.639Z,36.11
2018-09-28T11:52:20.049Z,36.09
2018-09-28T11:53:20.619Z,36.08
2018-09-28T11:54:20.989Z,36.07
2018-09-28T11:55:21.464Z,36.05
2018-09-28T11:56:21.931Z,36.04
2018-09-28T11:57:22.460Z,36.06
2018-09-28T11:58:22.875Z,36.02
2018-09-28T11:59:23.347Z,36.01
2018-09-28T12:00:23.816Z,36.00
2018-09-28T12:01:24.288Z,36.00
2018-09-28T12:02:24.761Z,35.99
2018-09-28T12:03:25.321Z,35.98
2018-09-28T12:04:25.726Z,35.97
2018-09-28T12:05:26.234Z,35.97
2018-09-28T12:06:26.749Z,35.96
2018-09-28T12:07:27.168Z,35.96
2018-09-28T12:08:27.666Z,35.95
2018-09-28T12:09:28.118Z,35.95
2018-09-28T12:10:28.553Z,35.94
2018-09-28T12:11:29.019Z,35.93
2018-09-28T12:12:29.814Z,35.93
2018-09-28T12:13:30.084Z,35.92
2018-09-28T12:14:30.456Z,35.91
2018-09-28T12:15:31.153Z,35.91
2018-09-28T12:16:31.845Z,35.93
2018-09-28T12:17:31.860Z,35.91
2018-09-28T12:18:32.325Z,35.90
2018-09-28T12:19:32.794Z,35.90
2018-09-28T12:20:33.264Z,35.90
2018-09-28T12:21:33.959Z,35.90
2018-09-28T12:22:34.231Z,35.89
2018-09-28T12:23:35.812Z,35.89
2018-09-28T12:24:35.209Z,35.88
2018-09-28T12:25:35.649Z,35.89
2018-09-28T12:26:36.090Z,35.89
2018-09-28T12:27:36.782Z,35.89
2018-09-28T12:28:37.087Z,35.89
2018-09-28T12:29:37.536Z,35.89
2018-09-28T12:30:38.065Z,35.89
2018-09-28T12:31:38.431Z,35.88
2018-09-28T12:32:38.904Z,35.89
2018-09-28T12:33:39.428Z,35.89
2018-09-28T12:34:39.846Z,35.89
2018-09-28T12:35:40.433Z,35.89
2018-09-28T12:36:40.818Z,35.88
2018-09-28T12:37:41.262Z,35.89
2018-09-28T12:38:41.882Z,35.91
2018-09-28T12:39:42.312Z,35.90
2018-09-28T12:40:42.676Z,35.93
2018-09-28T12:42:43.680Z,35.94
2018-09-28T12:43:44.092Z,35.95
2018-09-28T12:44:44.604Z,35.96
2018-09-28T12:45:45.173Z,35.97
2018-09-28T12:46:45.504Z,35.97
2018-09-28T12:47:45.977Z,35.98
2018-09-28T12:48:46.457Z,35.98
2018-09-28T12:49:46.920Z,35.99
2018-09-28T12:50:47.429Z,35.99
2018-09-28T12:51:47.864Z,36.00
2018-09-28T12:52:48.333Z,36.00
2018-09-28T12:53:48.855Z,36.00
2018-09-28T12:54:49.326Z,36.01
2018-09-28T12:55:49.749Z,36.02
2018-09-28T12:56:50.292Z,36.02
2018-09-28T12:57:50.693Z,36.02
2018-09-28T12:58:51.164Z,36.04
2018-09-28T12:59:51.634Z,36.03
2018-09-28T13:00:52.187Z,36.01
2018-09-28T13:01:52.580Z,36.03
2018-09-28T13:02:53.130Z,36.03